Time;durP1;ratioP1;P1;durP2;ratioP2;P2;SDS_P1;SDS_P2;PMS_P1;PMS_P2;Temp;Humidity;BMP_temperature;BMP_pressure;BME280_temperature;BME280_humidity;BME280_pressure;Samples;Min_cycle;Max_cycle;Signal;HPM_P1;HPM_P2
2023/09/30 00:00:41;;;;;;;;;8.00;6.00;;;;;;;;5101959;28;10769;-78
2023/09/30 00:03:07;;;;;;;;;6.50;6.00;;;;;;;;5121116;27;10555;-78
2023/09/30 00:05:32;;;;;;;;;9.75;7.25;;;;;;;;5122860;27;8886;-78
2023/09/30 00:07:57;;;;;;;;;7.25;5.00;;;;;;;;5123623;27;8814;-78
2023/09/30 00:10:22;;;;;;;;;6.75;6.00;;;;;;;;5133100;27;8843;-78
2023/09/30 00:12:48;;;;;;;;;7.00;5.00;;;;;;;;5123295;28;8780;-78
2023/09/30 00:15:13;;;;;;;;;6.25;6.25;;;;;;;;5121978;28;8795;-78
2023/09/30 00:17:38;;;;;;;;;7.25;4.75;;;;;;;;5122164;28;10394;-78
2023/09/30 00:20:04;;;;;;;;;7.25;4.50;;;;;;;;5123176;28;8769;-78
2023/09/30 00:22:29;;;;;;;;;14.25;6.75;;;;;;;;5123271;28;8858;-78
2023/09/30 00:24:54;;;;;;;;;7.75;6.00;;;;;;;;5121819;27;8812;-78
2023/09/30 00:27:20;;;;;;;;;10.25;6.75;;;;;;;;5121671;27;8804;-78
2023/09/30 00:29:45;;;;;;;;;12.75;6.25;;;;;;;;5121065;28;9172;-78
2023/09/30 00:32:10;;;;;;;;;10.50;5.75;;;;;;;;5121427;28;9769;-78
2023/09/30 00:34:35;;;;;;;;;8.25;8.25;;;;;;;;5121018;27;8841;-78
2023/09/30 00:37:01;;;;;;;;;7.00;5.50;;;;;;;;5121356;28;10004;-78
2023/09/30 00:39:30;;;;;;;;;11.75;6.00;;;;;;;;5121699;28;8811;-78
2023/09/30 00:41:55;;;;;;;;;11.25;4.75;;;;;;;;5121692;28;9758;-78
2023/09/30 00:44:20;;;;;;;;;8.75;6.00;;;;;;;;5122922;27;10844;-78
2023/09/30 00:46:46;;;;;;;;;8.25;4.50;;;;;;;;5122783;27;8833;-78
2023/09/30 00:49:13;;;;;;;;;6.00;3.25;;;;;;;;5121146;28;9600;-78
2023/09/30 00:51:39;;;;;;;;;7.00;7.00;;;;;;;;5122739;27;8763;-78
2023/09/30 00:54:05;;;;;;;;;6.75;6.00;;;;;;;;5121744;28;10683;-78
2023/09/30 00:56:32;;;;;;;;;3.50;3.50;;;;;;;;5122615;27;8735;-78
2023/09/30 00:58:57;;;;;;;;;4.00;4.00;;;;;;;;5124899;28;10898;-78
2023/09/30 01:01:23;;;;;;;;;10.75;6.75;;;;;;;;5124859;27;10844;-78
2023/09/30 01:03:49;;;;;;;;;3.25;0.25;;;;;;;;5125564;27;8775;-78
2023/09/30 01:06:14;;;;;;;;;9.00;6.00;;;;;;;;5125206;28;9940;-78
2023/09/30 01:08:39;;;;;;;;;7.00;6.00;;;;;;;;5126200;28;8802;-78
2023/09/30 01:11:05;;;;;;;;;8.25;5.00;;;;;;;;5126557;28;8907;-78
2023/09/30 01:13:37;;;;;;;;;6.00;6.00;;;;;;;;5124723;28;8807;-78
2023/09/30 01:16:06;;;;;;;;;6.75;5.25;;;;;;;;5126498;27;8801;-78
2023/09/30 01:18:32;;;;;;;;;11.75;5.00;;;;;;;;5124047;28;10835;-78
2023/09/30 01:21:01;;;;;;;;;9.50;7.00;;;;;;;;5137425;27;10818;-78
2023/09/30 01:23:27;;;;;;;;;8.50;5.25;;;;;;;;5147071;27;9581;-78
2023/09/30 01:25:53;;;;;;;;;8.25;7.00;;;;;;;;5145495;27;11042;-78
2023/09/30 01:28:18;;;;;;;;;8.75;6.00;;;;;;;;5145081;27;10933;-78
2023/09/30 01:30:44;;;;;;;;;9.25;6.75;;;;;;;;5145332;27;8877;-78
2023/09/30 01:33:09;;;;;;;;;10.00;5.75;;;;;;;;5144704;27;8848;-78
2023/09/30 01:35:36;;;;;;;;;8.25;4.50;;;;;;;;5145484;27;8823;-78
2023/09/30 01:38:01;;;;;;;;;5.50;5.00;;;;;;;;5144870;27;10683;-78
2023/09/30 01:40:26;;;;;;;;;5.50;5.50;;;;;;;;5146756;27;8879;-78
2023/09/30 01:42:51;;;;;;;;;9.25;3.00;;;;;;;;5144264;27;9564;-78
2023/09/30 01:45:17;;;;;;;;;10.25;7.50;;;;;;;;5144970;27;10096;-78
2023/09/30 01:47:42;;;;;;;;;5.50;5.50;;;;;;;;5144694;27;8808;-78
2023/09/30 01:50:07;;;;;;;;;5.00;3.75;;;;;;;;5145155;27;8925;-78
2023/09/30 01:52:33;;;;;;;;;12.75;4.00;;;;;;;;5146450;27;8803;-78
2023/09/30 01:54:58;;;;;;;;;8.25;6.50;;;;;;;;5145563;27;8780;-78
2023/09/30 01:57:23;;;;;;;;;4.75;4.75;;;;;;;;5144566;27;9560;-78
2023/09/30 01:59:49;;;;;;;;;10.75;5.25;;;;;;;;5140358;27;9275;-78
2023/09/30 02:02:15;;;;;;;;;7.00;5.25;;;;;;;;5116756;28;8907;-78
2023/09/30 02:04:40;;;;;;;;;10.25;6.25;;;;;;;;5124220;28;10154;-78
2023/09/30 02:07:06;;;;;;;;;10.50;8.00;;;;;;;;5125465;28;10704;-78
2023/09/30 02:09:31;;;;;;;;;3.00;2.75;;;;;;;;5123276;28;8795;-78
2023/09/30 02:11:56;;;;;;;;;9.00;5.50;;;;;;;;5125212;27;8799;-78
2023/09/30 02:14:22;;;;;;;;;10.00;8.00;;;;;;;;5123397;28;10153;-78
2023/09/30 02:16:47;;;;;;;;;1.25;0.75;;;;;;;;5125521;27;9580;-78
2023/09/30 02:19:13;;;;;;;;;7.00;4.25;;;;;;;;5125058;27;8798;-77
2023/09/30 02:21:38;;;;;;;;;9.00;5.00;;;;;;;;5125326;27;8767;-78
2023/09/30 02:24:06;;;;;;;;;9.75;6.75;;;;;;;;5125211;28;8851;-78
2023/09/30 02:26:32;;;;;;;;;6.75;5.50;;;;;;;;5123202;28;8974;-78
2023/09/30 02:28:57;;;;;;;;;8.25;5.50;;;;;;;;5124526;27;10535;-78
2023/09/30 02:31:23;;;;;;;;;9.75;3.25;;;;;;;;5124895;27;10914;-78
2023/09/30 02:33:49;;;;;;;;;7.00;6.50;;;;;;;;5125186;27;9629;-78
2023/09/30 02:36:15;;;;;;;;;8.00;3.50;;;;;;;;5125176;27;8795;-78
2023/09/30 02:38:41;;;;;;;;;4.75;3.50;;;;;;;;5123841;28;8997;-78
2023/09/30 02:41:06;;;;;;;;;7.75;5.25;;;;;;;;5123606;28;10831;-78
2023/09/30 02:43:32;;;;;;;;;6.50;3.75;;;;;;;;5124072;27;8775;-78
2023/09/30 02:45:58;;;;;;;;;5.50;3.75;;;;;;;;5125111;27;8738;-78
2023/09/30 02:48:23;;;;;;;;;4.75;2.00;;;;;;;;5124692;27;10624;-77
2023/09/30 02:50:48;;;;;;;;;11.00;6.75;;;;;;;;5139111;27;8804;-77
2023/09/30 02:53:13;;;;;;;;;6.25;4.75;;;;;;;;5144198;27;10044;-78
2023/09/30 02:55:39;;;;;;;;;6.00;4.25;;;;;;;;5143224;27;8825;-77
2023/09/30 02:58:04;;;;;;;;;7.50;4.00;;;;;;;;5144553;27;8806;-78
2023/09/30 03:00:32;;;;;;;;;10.50;5.75;;;;;;;;5145409;27;8832;-78
2023/09/30 03:02:59;;;;;;;;;6.00;5.75;;;;;;;;5128013;27;10045;-78
2023/09/30 03:05:25;;;;;;;;;7.75;5.50;;;;;;;;5124641;27;11028;-78
2023/09/30 03:07:50;;;;;;;;;10.00;4.25;;;;;;;;5128622;27;11008;-78
2023/09/30 03:10:20;;;;;;;;;10.00;8.50;;;;;;;;5124776;27;9540;-78
2023/09/30 03:12:46;;;;;;;;;11.00;8.50;;;;;;;;5137961;27;8834;-78
2023/09/30 03:15:11;;;;;;;;;15.00;8.00;;;;;;;;5143464;27;10784;-78
2023/09/30 03:17:37;;;;;;;;;8.75;8.75;;;;;;;;5144779;27;10917;-77
2023/09/30 03:20:08;;;;;;;;;6.75;5.25;;;;;;;;5142601;27;8752;-78
2023/09/30 03:22:34;;;;;;;;;5.00;5.00;;;;;;;;5144497;27;11321;-77
2023/09/30 03:25:00;;;;;;;;;7.00;6.00;;;;;;;;5144331;27;10989;-78
2023/09/30 03:27:25;;;;;;;;;6.75;5.25;;;;;;;;5144042;27;8749;-78
2023/09/30 03:29:50;;;;;;;;;10.75;6.75;;;;;;;;5143245;27;11036;-78
2023/09/30 03:32:16;;;;;;;;;6.75;4.25;;;;;;;;5144738;27;9554;-77
2023/09/30 03:34:44;;;;;;;;;11.00;9.25;;;;;;;;5144647;27;8784;-77
2023/09/30 03:37:10;;;;;;;;;9.25;6.75;;;;;;;;5143214;27;8776;-78
2023/09/30 03:39:35;;;;;;;;;12.00;7.50;;;;;;;;5144761;27;10659;-77
2023/09/30 03:42:01;;;;;;;;;12.25;6.25;;;;;;;;5143757;27;8796;-78
2023/09/30 03:44:26;;;;;;;;;8.50;4.25;;;;;;;;5144697;27;8808;-77
2023/09/30 03:46:52;;;;;;;;;6.75;5.00;;;;;;;;5144270;27;9528;-78
2023/09/30 03:49:19;;;;;;;;;8.75;5.25;;;;;;;;5141853;27;8804;-77
2023/09/30 03:51:45;;;;;;;;;2.50;2.50;;;;;;;;5123435;27;11455;-77
2023/09/30 03:54:11;;;;;;;;;8.00;5.00;;;;;;;;5123812;27;11005;-78
2023/09/30 03:56:38;;;;;;;;;5.50;4.25;;;;;;;;5122782;27;8892;-78
2023/09/30 03:59:03;;;;;;;;;8.00;6.75;;;;;;;;5142588;27;8744;-78
2023/09/30 04:01:29;;;;;;;;;8.50;4.75;;;;;;;;5138086;27;11415;-78
2023/09/30 04:03:56;;;;;;;;;6.25;4.25;;;;;;;;5121815;28;8830;-78
2023/09/30 04:06:22;;;;;;;;;6.25;5.00;;;;;;;;5122558;28;8791;-77
2023/09/30 04:08:47;;;;;;;;;5.50;5.50;;;;;;;;5123231;28;10951;-78
2023/09/30 04:11:18;;;;;;;;;6.00;5.75;;;;;;;;5121512;28;11257;-78
2023/09/30 04:13:46;;;;;;;;;7.00;5.50;;;;;;;;5123662;28;8803;-77
2023/09/30 04:16:11;;;;;;;;;5.75;5.75;;;;;;;;5123277;27;11998;-77
2023/09/30 04:18:38;;;;;;;;;10.75;8.75;;;;;;;;5122014;28;11798;-78
2023/09/30 04:21:03;;;;;;;;;6.00;4.50;;;;;;;;5123117;27;8827;-77
2023/09/30 04:23:28;;;;;;;;;7.75;3.25;;;;;;;;5142123;27;11056;-77
2023/09/30 04:25:54;;;;;;;;;6.25;6.25;;;;;;;;5120704;27;9309;-77
2023/09/30 04:28:20;;;;;;;;;6.50;5.00;;;;;;;;5122025;27;9704;-78
2023/09/30 04:30:49;;;;;;;;;10.25;5.25;;;;;;;;5121353;28;10083;-78
2023/09/30 04:33:17;;;;;;;;;4.75;4.00;;;;;;;;5127661;27;10944;-77
2023/09/30 04:35:42;;;;;;;;;5.25;5.25;;;;;;;;5120657;28;10909;-78
2023/09/30 04:38:08;;;;;;;;;13.25;7.00;;;;;;;;5121384;28;10973;-77
2023/09/30 04:40:33;;;;;;;;;8.50;3.75;;;;;;;;5122417;27;9029;-77
2023/09/30 04:42:59;;;;;;;;;4.50;4.50;;;;;;;;5122967;27;8776;-77
2023/09/30 04:45:25;;;;;;;;;7.00;4.50;;;;;;;;5121404;28;8811;-78
2023/09/30 04:47:51;;;;;;;;;10.50;7.00;;;;;;;;5141884;27;8828;-77
2023/09/30 04:50:16;;;;;;;;;7.25;5.00;;;;;;;;5143329;27;11400;-78
2023/09/30 04:52:42;;;;;;;;;9.00;7.50;;;;;;;;5142453;27;8785;-77
2023/09/30 04:55:12;;;;;;;;;3.25;3.25;;;;;;;;5142411;27;8772;-77
2023/09/30 04:57:37;;;;;;;;;14.00;7.25;;;;;;;;5141846;27;8799;-77
2023/09/30 05:00:11;;;;;;;;;8.50;4.25;;;;;;;;5125756;27;11417;-77
2023/09/30 05:02:37;;;;;;;;;13.00;7.50;;;;;;;;5118501;27;8812;-78
2023/09/30 05:05:05;;;;;;;;;6.75;5.25;;;;;;;;5131862;27;10865;-76
2023/09/30 05:07:30;;;;;;;;;4.50;4.00;;;;;;;;5122454;27;8742;-77
2023/09/30 05:09:56;;;;;;;;;4.00;4.00;;;;;;;;5127355;27;10924;-77
2023/09/30 05:12:21;;;;;;;;;6.00;3.50;;;;;;;;5121581;27;8833;-77
2023/09/30 05:14:46;;;;;;;;;7.50;4.75;;;;;;;;5122246;27;8790;-77
2023/09/30 05:17:13;;;;;;;;;10.00;6.50;;;;;;;;5120386;28;8883;-78
2023/09/30 05:19:38;;;;;;;;;7.75;6.00;;;;;;;;5123626;27;10101;-76
2023/09/30 05:22:05;;;;;;;;;5.00;5.00;;;;;;;;5122381;27;11109;-76
2023/09/30 05:24:30;;;;;;;;;9.00;8.25;;;;;;;;5125784;27;8786;-77
2023/09/30 05:26:55;;;;;;;;;8.75;6.00;;;;;;;;5124567;27;11419;-76
2023/09/30 05:29:21;;;;;;;;;5.75;5.00;;;;;;;;5128245;27;9938;-76
2023/09/30 05:31:46;;;;;;;;;7.00;5.00;;;;;;;;5126031;27;8990;-76
2023/09/30 05:34:12;;;;;;;;;5.25;5.25;;;;;;;;5126225;27;8803;-76
2023/09/30 05:36:37;;;;;;;;;7.75;4.75;;;;;;;;5126927;27;8807;-76
2023/09/30 05:39:03;;;;;;;;;8.25;5.25;;;;;;;;5120845;27;8787;-76
2023/09/30 05:41:29;;;;;;;;;10.50;7.75;;;;;;;;5122208;27;8736;-76
2023/09/30 05:43:54;;;;;;;;;9.00;5.75;;;;;;;;5123608;27;11346;-76
2023/09/30 05:46:20;;;;;;;;;10.50;8.75;;;;;;;;5123525;27;11124;-76
2023/09/30 05:48:45;;;;;;;;;6.00;6.00;;;;;;;;5126457;27;8888;-76
2023/09/30 05:51:14;;;;;;;;;9.50;6.25;;;;;;;;5125898;27;8819;-74
2023/09/30 05:53:39;;;;;;;;;6.75;4.50;;;;;;;;5144768;27;8838;-77
2023/09/30 05:56:05;;;;;;;;;8.00;5.00;;;;;;;;5143511;27;11356;-73
2023/09/30 05:58:30;;;;;;;;;9.00;5.00;;;;;;;;5131182;27;9689;-78
2023/09/30 06:00:55;;;;;;;;;6.75;4.25;;;;;;;;5124600;27;8826;-78
2023/09/30 06:03:23;;;;;;;;;8.50;7.00;;;;;;;;5127134;27;8813;-77
2023/09/30 06:05:49;;;;;;;;;9.00;7.00;;;;;;;;5125499;27;8784;-76
2023/09/30 06:08:14;;;;;;;;;5.75;4.75;;;;;;;;5128845;27;11465;-75
2023/09/30 06:10:42;;;;;;;;;9.50;5.00;;;;;;;;5123431;28;8842;-76
2023/09/30 06:13:08;;;;;;;;;8.50;4.00;;;;;;;;5143705;27;8788;-75
2023/09/30 06:15:34;;;;;;;;;7.25;6.25;;;;;;;;5139193;27;10869;-75
2023/09/30 06:17:59;;;;;;;;;11.75;7.25;;;;;;;;5124088;27;11440;-74
2023/09/30 06:20:30;;;;;;;;;12.50;7.50;;;;;;;;5125373;27;8784;-75
2023/09/30 06:22:55;;;;;;;;;11.25;7.25;;;;;;;;5126439;27;8877;-74
2023/09/30 06:25:23;;;;;;;;;5.50;3.25;;;;;;;;5131818;27;11486;-75
2023/09/30 06:27:49;;;;;;;;;10.50;6.75;;;;;;;;5133898;27;8927;-74
2023/09/30 06:30:16;;;;;;;;;13.00;11.25;;;;;;;;5143778;27;11162;-74
2023/09/30 06:32:41;;;;;;;;;13.25;9.50;;;;;;;;5128545;27;11365;-74
2023/09/30 06:35:10;;;;;;;;;9.00;7.25;;;;;;;;5124746;27;11044;-74
2023/09/30 06:37:35;;;;;;;;;10.00;8.00;;;;;;;;5143886;27;8785;-74
2023/09/30 06:40:03;;;;;;;;;7.75;6.25;;;;;;;;5131248;27;11430;-74
2023/09/30 06:42:29;;;;;;;;;5.25;5.00;;;;;;;;5131006;27;8794;-74
2023/09/30 06:44:54;;;;;;;;;4.75;3.25;;;;;;;;5124940;28;11438;-75
2023/09/30 06:47:20;;;;;;;;;7.50;7.00;;;;;;;;5123889;27;9613;-73
2023/09/30 06:49:46;;;;;;;;;10.00;6.00;;;;;;;;5125041;27;8865;-73
2023/09/30 06:52:11;;;;;;;;;9.00;7.00;;;;;;;;5131978;27;11179;-75
2023/09/30 06:54:36;;;;;;;;;5.00;5.00;;;;;;;;5142263;27;9032;-76
2023/09/30 06:57:02;;;;;;;;;7.75;7.00;;;;;;;;5144730;27;8863;-76
2023/09/30 06:59:27;;;;;;;;;11.50;8.00;;;;;;;;5137674;27;8820;-76
2023/09/30 07:01:52;;;;;;;;;8.00;7.25;;;;;;;;5125374;27;8815;-75
2023/09/30 07:04:18;;;;;;;;;10.50;8.00;;;;;;;;5137709;27;8792;-76
2023/09/30 07:06:43;;;;;;;;;12.00;7.50;;;;;;;;5126416;27;8891;-76
2023/09/30 07:09:10;;;;;;;;;9.25;6.00;;;;;;;;5125711;27;8875;-75
2023/09/30 07:11:35;;;;;;;;;7.00;7.00;;;;;;;;5120121;27;8760;-76
2023/09/30 07:14:00;;;;;;;;;7.00;7.00;;;;;;;;5123359;28;10735;-76
2023/09/30 07:16:26;;;;;;;;;10.00;8.75;;;;;;;;5124321;27;8816;-76
2023/09/30 07:18:51;;;;;;;;;11.50;6.25;;;;;;;;5123404;27;8838;-77
2023/09/30 07:21:16;;;;;;;;;11.75;7.25;;;;;;;;5123586;27;8795;-76
2023/09/30 07:23:42;;;;;;;;;10.00;7.00;;;;;;;;5138449;27;8776;-79
2023/09/30 07:26:07;;;;;;;;;10.75;7.50;;;;;;;;5138408;27;8970;-79
2023/09/30 07:28:32;;;;;;;;;9.00;6.75;;;;;;;;5129449;27;8822;-79
2023/09/30 07:30:58;;;;;;;;;12.00;9.50;;;;;;;;5137479;27;8907;-79
2023/09/30 07:33:23;;;;;;;;;11.50;8.75;;;;;;;;5130588;27;8817;-78
2023/09/30 07:35:49;;;;;;;;;14.00;6.25;;;;;;;;5122103;27;8891;-79
2023/09/30 07:38:14;;;;;;;;;11.25;8.25;;;;;;;;5122582;28;8794;-79
2023/09/30 07:40:39;;;;;;;;;12.50;9.00;;;;;;;;5122560;28;8937;-79
2023/09/30 07:43:05;;;;;;;;;15.00;11.75;;;;;;;;5122035;28;8798;-79
2023/09/30 07:45:30;;;;;;;;;10.50;7.25;;;;;;;;5123860;27;8817;-78
2023/09/30 07:47:55;;;;;;;;;16.00;8.50;;;;;;;;5121733;28;8799;-77
2023/09/30 07:50:20;;;;;;;;;10.00;8.25;;;;;;;;5124005;27;8835;-77
2023/09/30 07:52:46;;;;;;;;;9.25;8.25;;;;;;;;5141795;27;8823;-77
2023/09/30 07:55:12;;;;;;;;;18.25;10.50;;;;;;;;5127887;27;10448;-78
2023/09/30 07:57:41;;;;;;;;;17.25;10.00;;;;;;;;5123692;27;8807;-78
2023/09/30 08:00:14;;;;;;;;;14.50;9.75;;;;;;;;5139139;27;8846;-78
2023/09/30 08:02:40;;;;;;;;;10.25;8.75;;;;;;;;5130183;27;10753;-77
2023/09/30 08:05:05;;;;;;;;;13.00;10.00;;;;;;;;5133281;27;10927;-77
2023/09/30 08:07:31;;;;;;;;;15.00;12.25;;;;;;;;5123144;27;8837;-77
2023/09/30 08:09:56;;;;;;;;;14.50;12.25;;;;;;;;5123089;28;8834;-77
2023/09/30 08:12:21;;;;;;;;;16.00;10.25;;;;;;;;5123542;27;8772;-77
2023/09/30 08:14:46;;;;;;;;;15.75;11.25;;;;;;;;5123221;27;8837;-77
2023/09/30 08:17:12;;;;;;;;;12.75;10.00;;;;;;;;5121580;28;8866;-77
2023/09/30 08:19:37;;;;;;;;;9.75;8.50;;;;;;;;5123222;28;8809;-77
2023/09/30 08:22:03;;;;;;;;;13.50;11.25;;;;;;;;5122872;27;8787;-77
2023/09/30 08:24:31;;;;;;;;;15.75;12.00;;;;;;;;5122271;28;8760;-77
2023/09/30 08:26:56;;;;;;;;;13.25;11.25;;;;;;;;5120403;28;8787;-78
2023/09/30 08:29:22;;;;;;;;;13.25;9.00;;;;;;;;5120810;28;11098;-77
2023/09/30 08:31:47;;;;;;;;;20.75;13.75;;;;;;;;5122039;27;8841;-77
2023/09/30 08:34:14;;;;;;;;;14.00;12.00;;;;;;;;5121793;28;8823;-77
2023/09/30 08:36:41;;;;;;;;;19.75;12.50;;;;;;;;5120327;27;8733;-77
2023/09/30 08:39:07;;;;;;;;;16.75;10.75;;;;;;;;5120367;28;10550;-77
2023/09/30 08:41:33;;;;;;;;;15.00;11.50;;;;;;;;5120861;27;10832;-77
2023/09/30 08:44:03;;;;;;;;;14.00;10.00;;;;;;;;5121763;28;8792;-77
2023/09/30 08:46:30;;;;;;;;;11.25;11.25;;;;;;;;5120307;28;10570;-77
2023/09/30 08:48:57;;;;;;;;;19.50;11.75;;;;;;;;5122534;27;11024;-77
2023/09/30 08:51:22;;;;;;;;;13.00;12.75;;;;;;;;5126478;27;11029;-77
2023/09/30 08:53:49;;;;;;;;;11.25;11.00;;;;;;;;5120480;28;10966;-81
2023/09/30 08:56:16;;;;;;;;;20.25;10.50;;;;;;;;5123490;28;9215;-79
2023/09/30 08:58:41;;;;;;;;;13.25;10.00;;;;;;;;5114686;27;10780;-77
2023/09/30 09:01:09;;;;;;;;;19.00;10.00;;;;;;;;5112226;27;10665;-78
2023/09/30 09:03:36;;;;;;;;;12.25;10.25;;;;;;;;5122894;27;8811;-78
2023/09/30 09:06:02;;;;;;;;;14.00;10.75;;;;;;;;5119447;28;10538;-78
2023/09/30 09:08:27;;;;;;;;;14.00;8.75;;;;;;;;5102356;28;10777;-79
2023/09/30 09:10:56;;;;;;;;;12.50;8.25;;;;;;;;5102717;28;8825;-78
2023/09/30 09:13:22;;;;;;;;;16.50;13.00;;;;;;;;5114548;27;8892;-76
2023/09/30 09:15:47;;;;;;;;;10.25;7.00;;;;;;;;5122640;28;10817;-77
2023/09/30 09:18:19;;;;;;;;;11.50;8.75;;;;;;;;5124175;28;8876;-76
2023/09/30 09:20:45;;;;;;;;;10.50;9.00;;;;;;;;5125749;27;8894;-76
2023/09/30 09:23:14;;;;;;;;;9.25;7.50;;;;;;;;5126094;27;10764;-76
2023/09/30 09:25:39;;;;;;;;;13.75;9.25;;;;;;;;5124575;27;8775;-76
2023/09/30 09:28:04;;;;;;;;;8.50;6.75;;;;;;;;5125907;27;10678;-76
2023/09/30 09:30:30;;;;;;;;;8.00;8.00;;;;;;;;5124950;27;8799;-76
2023/09/30 09:32:58;;;;;;;;;11.25;7.75;;;;;;;;5131227;27;8779;-76
2023/09/30 09:35:25;;;;;;;;;14.75;8.50;;;;;;;;5123856;27;8787;-76
2023/09/30 09:37:57;;;;;;;;;8.00;5.75;;;;;;;;5131282;27;10527;-76
2023/09/30 09:40:24;;;;;;;;;7.50;7.00;;;;;;;;5142418;27;10188;-76
2023/09/30 09:42:53;;;;;;;;;6.25;4.00;;;;;;;;5127183;27;10466;-76
2023/09/30 09:45:19;;;;;;;;;10.25;8.00;;;;;;;;5123082;27;10260;-75
2023/09/30 09:47:44;;;;;;;;;10.75;7.75;;;;;;;;5144478;27;10445;-79
2023/09/30 09:50:10;;;;;;;;;10.50;7.00;;;;;;;;5138406;27;11459;-80
2023/09/30 09:52:37;;;;;;;;;10.50;6.50;;;;;;;;5134605;27;8779;-81
2023/09/30 09:55:03;;;;;;;;;8.75;5.25;;;;;;;;5125823;27;8905;-78
2023/09/30 09:57:30;;;;;;;;;11.25;5.00;;;;;;;;5126382;27;10222;-81
2023/09/30 09:59:56;;;;;;;;;9.00;7.75;;;;;;;;5124361;27;10279;-78
2023/09/30 10:02:21;;;;;;;;;9.00;7.00;;;;;;;;5126819;27;10348;-77
2023/09/30 10:04:47;;;;;;;;;10.75;6.50;;;;;;;;5127468;27;8862;-89
2023/09/30 10:07:17;;;;;;;;;7.25;5.00;;;;;;;;5124492;27;8755;-80
2023/09/30 10:09:46;;;;;;;;;7.67;5.33;;;;;;;;5105232;27;8792;-81
2023/09/30 10:12:11;;;;;;;;;9.25;4.50;;;;;;;;5125653;27;10272;-77
2023/09/30 10:14:37;;;;;;;;;10.50;8.25;;;;;;;;5123989;28;10220;-78
2023/09/30 10:17:03;;;;;;;;;8.75;4.75;;;;;;;;5141097;27;8760;-79
2023/09/30 10:19:30;;;;;;;;;7.50;3.50;;;;;;;;5145508;27;10579;-74
2023/09/30 10:22:14;;;;;;;;;8.25;6.00;;;;;;;;5132882;27;8796;-77
2023/09/30 10:24:39;;;;;;;;;11.50;8.00;;;;;;;;5121322;27;10207;-76
2023/09/30 10:27:23;;;;;;;;;10.50;7.75;;;;;;;;5131422;27;10214;-83
2023/09/30 10:29:53;;;;;;;;;8.25;7.00;;;;;;;;5125926;27;8879;-75
2023/09/30 10:32:18;;;;;;;;;8.25;6.50;;;;;;;;5133919;27;10304;-78
2023/09/30 10:34:52;;;;;;;;;9.25;8.50;;;;;;;;5124506;27;10324;-81
2023/09/30 10:37:26;;;;;;;;;8.50;7.00;;;;;;;;5124616;27;8799;-79
2023/09/30 10:39:53;;;;;;;;;8.50;7.50;;;;;;;;5128042;27;10261;-78
2023/09/30 10:42:37;;;;;;;;;12.50;8.75;;;;;;;;5124501;27;10378;-79
2023/09/30 10:45:04;;;;;;;;;6.75;4.25;;;;;;;;5123447;28;10194;-79
2023/09/30 10:47:30;;;;;;;;;9.25;6.50;;;;;;;;5124784;27;11008;-79
2023/09/30 10:49:56;;;;;;;;;14.50;7.25;;;;;;;;5130013;27;9967;-77
2023/09/30 10:52:23;;;;;;;;;7.00;6.00;;;;;;;;5132748;27;10189;-81
2023/09/30 10:54:48;;;;;;;;;6.25;6.25;;;;;;;;5128003;27;8877;-80
2023/09/30 10:57:25;;;;;;;;;10.50;7.50;;;;;;;;5134804;27;10163;-78
2023/09/30 11:00:06;;;;;;;;;12.25;8.25;;;;;;;;5138752;27;11380;-80
2023/09/30 11:02:32;;;;;;;;;8.50;5.00;;;;;;;;5132935;27;10213;-78
2023/09/30 11:04:57;;;;;;;;;9.25;8.25;;;;;;;;5142771;27;10064;-81
2023/09/30 11:07:25;;;;;;;;;7.25;7.25;;;;;;;;5131466;27;8803;-76
2023/09/30 11:09:51;;;;;;;;;10.00;5.00;;;;;;;;5131956;27;8807;-78
2023/09/30 11:12:16;;;;;;;;;11.25;6.75;;;;;;;;5140685;27;10055;-78
2023/09/30 11:14:41;;;;;;;;;7.00;6.00;;;;;;;;5131655;27;8799;-76
2023/09/30 11:17:07;;;;;;;;;13.75;5.75;;;;;;;;5124612;27;8802;-75
2023/09/30 11:19:37;;;;;;;;;13.33;6.67;;;;;;;;5124414;27;8809;-78
2023/09/30 11:22:02;;;;;;;;;8.75;6.75;;;;;;;;5123928;27;8985;-75
2023/09/30 11:24:29;;;;;;;;;9.75;4.75;;;;;;;;5120345;27;9891;-74
2023/09/30 11:26:55;;;;;;;;;8.00;5.67;;;;;;;;5125065;27;8745;-76
2023/09/30 11:29:21;;;;;;;;;5.00;5.00;;;;;;;;5135617;27;9573;-74
2023/09/30 11:31:47;;;;;;;;;8.00;6.50;;;;;;;;5134197;27;10069;-76
2023/09/30 11:34:13;;;;;;;;;8.00;6.75;;;;;;;;5131487;27;8717;-75
2023/09/30 11:36:42;;;;;;;;;5.50;3.75;;;;;;;;5125624;27;9719;-77
2023/09/30 11:39:09;;;;;;;;;11.50;6.50;;;;;;;;5121086;27;8965;-74
2023/09/30 11:41:34;;;;;;;;;5.00;3.00;;;;;;;;5134100;27;10405;-74
2023/09/30 11:44:04;;;;;;;;;8.25;4.50;;;;;;;;5134740;27;9626;-75
2023/09/30 11:46:32;;;;;;;;;7.75;7.00;;;;;;;;5132411;27;8875;-73
2023/09/30 11:49:01;;;;;;;;;7.25;6.00;;;;;;;;5129807;27;9619;-77
2023/09/30 11:51:27;;;;;;;;;8.75;6.50;;;;;;;;5128778;27;10225;-80
2023/09/30 11:53:54;;;;;;;;;12.00;6.00;;;;;;;;5125021;27;9581;-78
2023/09/30 11:56:27;;;;;;;;;9.00;7.00;;;;;;;;5122946;27;9540;-76
2023/09/30 11:58:57;;;;;;;;;12.67;7.00;;;;;;;;5125661;27;9631;-72
2023/09/30 12:01:22;;;;;;;;;6.33;4.33;;;;;;;;5126219;27;9784;-78
2023/09/30 12:03:48;;;;;;;;;5.33;5.33;;;;;;;;5123995;27;9415;-73
2023/09/30 12:06:13;;;;;;;;;8.67;4.67;;;;;;;;5126593;27;8767;-79
2023/09/30 12:08:39;;;;;;;;;6.00;6.00;;;;;;;;5121339;27;9479;-77
2023/09/30 12:11:04;;;;;;;;;4.00;4.00;;;;;;;;5124425;27;8805;-77
2023/09/30 12:13:30;;;;;;;;;5.67;4.67;;;;;;;;5125591;27;8833;-75
2023/09/30 12:15:55;;;;;;;;;5.67;4.33;;;;;;;;5138000;27;8801;-78
2023/09/30 12:18:24;;;;;;;;;10.33;5.67;;;;;;;;5128826;27;8798;-72
2023/09/30 12:20:54;;;;;;;;;5.33;4.67;;;;;;;;5125288;27;8784;-72
2023/09/30 12:23:20;;;;;;;;;12.00;7.33;;;;;;;;5121018;27;9331;-72
2023/09/30 12:25:46;;;;;;;;;6.33;5.00;;;;;;;;5122132;27;9344;-72
2023/09/30 12:28:13;;;;;;;;;5.00;5.00;;;;;;;;5121486;28;8843;-72
2023/09/30 12:30:39;;;;;;;;;6.00;4.67;;;;;;;;5127579;27;9863;-74
2023/09/30 12:33:06;;;;;;;;;9.00;5.33;;;;;;;;5137163;27;9433;-73
2023/09/30 12:35:32;;;;;;;;;6.67;4.00;;;;;;;;5141328;27;9221;-78
2023/09/30 12:37:57;;;;;;;;;5.33;5.33;;;;;;;;5121579;27;9380;-74
2023/09/30 12:40:23;;;;;;;;;7.00;6.00;;;;;;;;5129241;27;8842;-72
2023/09/30 12:42:48;;;;;;;;;7.33;4.00;;;;;;;;5122505;27;8779;-72
2023/09/30 12:45:14;;;;;;;;;4.33;4.33;;;;;;;;5132229;27;8784;-72
2023/09/30 12:47:39;;;;;;;;;10.33;4.33;;;;;;;;5128344;27;8783;-73
2023/09/30 12:50:04;;;;;;;;;7.33;5.00;;;;;;;;5124056;27;8815;-73
2023/09/30 12:52:31;;;;;;;;;7.67;6.33;;;;;;;;5141829;27;8780;-73
2023/09/30 12:54:57;;;;;;;;;9.00;4.67;;;;;;;;5127594;27;8739;-73
2023/09/30 12:57:22;;;;;;;;;30.00;25.50;;;;;;;;5137219;27;9372;-73
2023/09/30 12:59:49;;;;;;;;;13.33;11.67;;;;;;;;5135267;27;9962;-73
2023/09/30 13:02:15;;;;;;;;;13.67;10.00;;;;;;;;5139826;27;8928;-73
2023/09/30 13:04:43;;;;;;;;;4.00;4.00;;;;;;;;5125256;28;9276;-73
2023/09/30 13:07:12;;;;;;;;;8.67;6.67;;;;;;;;5123664;28;8873;-73
2023/09/30 13:09:40;;;;;;;;;14.00;12.00;;;;;;;;5124623;28;11175;-73
2023/09/30 13:12:06;;;;;;;;;6.00;4.33;;;;;;;;5124098;28;9388;-73
2023/09/30 13:14:31;;;;;;;;;6.67;5.67;;;;;;;;5125393;27;9226;-73
2023/09/30 13:16:57;;;;;;;;;8.00;4.33;;;;;;;;5126251;27;8807;-73
2023/09/30 13:19:22;;;;;;;;;8.00;4.33;;;;;;;;5125143;28;8875;-73
2023/09/30 13:21:49;;;;;;;;;11.33;4.33;;;;;;;;5124701;27;8811;-73
2023/09/30 13:24:15;;;;;;;;;8.00;5.33;;;;;;;;5125354;27;8864;-73
2023/09/30 13:26:40;;;;;;;;;8.33;6.67;;;;;;;;5124625;28;9263;-73
2023/09/30 13:29:05;;;;;;;;;6.00;5.00;;;;;;;;5125249;28;10842;-73
2023/09/30 13:31:31;;;;;;;;;7.00;5.33;;;;;;;;5125104;28;9031;-73
2023/09/30 13:33:56;;;;;;;;;5.00;3.67;;;;;;;;5128911;27;8815;-73
2023/09/30 13:36:22;;;;;;;;;6.33;5.33;;;;;;;;5125369;27;8890;-74
2023/09/30 13:38:48;;;;;;;;;7.00;5.33;;;;;;;;5125923;27;9450;-72
2023/09/30 13:41:15;;;;;;;;;7.33;5.00;;;;;;;;5126040;27;8767;-72
2023/09/30 13:43:40;;;;;;;;;6.50;4.50;;;;;;;;5139169;27;8895;-72
2023/09/30 13:46:06;;;;;;;;;8.00;4.00;;;;;;;;5146759;27;8957;-72
2023/09/30 13:48:32;;;;;;;;;8.33;7.00;;;;;;;;5146070;27;8776;-72
2023/09/30 13:51:07;;;;;;;;;7.00;4.67;;;;;;;;5133038;27;8825;-72
2023/09/30 13:53:32;;;;;;;;;5.00;5.00;;;;;;;;5125396;28;8854;-72
2023/09/30 13:55:58;;;;;;;;;6.00;4.00;;;;;;;;5131274;27;8868;-72
2023/09/30 13:58:24;;;;;;;;;4.33;2.00;;;;;;;;5145387;27;8792;-72
2023/09/30 14:00:49;;;;;;;;;6.00;4.00;;;;;;;;5132708;27;8808;-72
2023/09/30 14:03:15;;;;;;;;;2.00;2.00;;;;;;;;5125431;27;8964;-72
2023/09/30 14:05:42;;;;;;;;;6.33;3.67;;;;;;;;5124195;27;8819;-71
2023/09/30 14:08:07;;;;;;;;;7.33;5.67;;;;;;;;5124898;28;9670;-76
2023/09/30 14:10:33;;;;;;;;;3.67;2.33;;;;;;;;5125769;27;8927;-75
2023/09/30 14:12:58;;;;;;;;;3.33;3.33;;;;;;;;5126893;27;8817;-74
2023/09/30 14:15:23;;;;;;;;;3.00;3.00;;;;;;;;5125033;27;8776;-72
2023/09/30 14:17:48;;;;;;;;;5.00;4.00;;;;;;;;5142768;27;8802;-73
2023/09/30 14:20:14;;;;;;;;;2.67;2.67;;;;;;;;5144093;27;8868;-74
2023/09/30 14:22:39;;;;;;;;;3.00;2.00;;;;;;;;5133932;27;8800;-74
2023/09/30 14:25:05;;;;;;;;;3.00;3.00;;;;;;;;5124815;27;8889;-74
2023/09/30 14:27:31;;;;;;;;;5.00;3.67;;;;;;;;5143257;27;8745;-73
2023/09/30 14:29:56;;;;;;;;;7.67;5.67;;;;;;;;5137052;27;11398;-74
2023/09/30 14:32:23;;;;;;;;;4.33;2.33;;;;;;;;5123440;28;8809;-74
2023/09/30 14:34:48;;;;;;;;;3.50;3.00;;;;;;;;5124328;27;8776;-73
2023/09/30 14:37:13;;;;;;;;;6.33;4.00;;;;;;;;5124875;28;8776;-72
2023/09/30 14:39:38;;;;;;;;;8.67;4.33;;;;;;;;5124108;27;8819;-73